Nearby METAR Reports

 

KIAD - Wash Dc/Dulles, Virginia, USA
Distance from station: ESE 7mi, 11km
Updated: Sat, 20-Jul-2019 8:52pm EDT
Thunderstorm, Mostly cloudy
Thunderstorm, Mostly cloudy
 Wind from W
Wind: W 15 mph , 24 km/h, Gust: 23 mph , 37 km/h
Temperature: 90°F , 32°C
Heat Index: 97°F , 36°C
Dew Point: 72°F , 22°C
Humidity: 55%
Barometer: 29.88 inHg , 1011.9 hPa
Summary: Thunderstorm
Clouds: Mostly cloudy
Visibility: 10 miles , 16 km
Cloud details: Few Clouds 3600 ft
Mostly cloudy 6000 ft
Mostly cloudy 20000 ft
2019/07/21 00:52 KIAD 210052Z 26013G20KT 10SM TS FEW036 BKN060CB BKN200 32/22 A2988 RMK AO2 TSB44 SLP115 OCNL LTGICCG W-OHD TS W-OHD MOV E T03220217
KJYO - Leesburg/Godfrey, Virginia, USA
Distance from station: N 7mi, 12km
Updated: Sat, 20-Jul-2019 8:35pm EDT
Mostly cloudy
Mostly cloudy
 Wind from W
Wind: W 15 mph , 24 km/h, Gust: 23 mph , 37 km/h
Temperature: 88°F , 31°C
Heat Index: 103°F , 39°C
Dew Point: 79°F , 26°C
Humidity: 75%
Barometer: 29.90 inHg , 1012.5 hPa
Clouds: Mostly cloudy
Visibility: 10 miles , 16 km
Cloud details: Partly cloudy 5000 ft
Partly cloudy 6500 ft
Mostly cloudy 7500 ft
2019/07/21 00:35 KJYO 210035Z AUTO 28013G20KT 10SM SCT050 SCT065 BKN075 31/26 A2990 RMK AO2 LTG DSNT SW AND W
 
KHEF - Manassas Muni, Virginia, USA
Distance from station: S 17mi, 28km
Updated: Sat, 20-Jul-2019 8:56pm EDT
Partly cloudy
Partly cloudy
 Wind from NW
Wind: NW 23 mph , 37 km/h, Gust: 32 mph , 52 km/h
Temperature: 88°F , 31°C
Heat Index: 96°F , 36°C
Dew Point: 73°F , 23°C
Humidity: 62%
Barometer: 29.90 inHg , 1012.5 hPa
Clouds: Partly cloudy
Visibility: 10 miles , 16 km
Cloud details: Partly cloudy 5500 ft
Partly cloudy 7000 ft
2019/07/21 00:56 KHEF 210056Z 31020G28KT 10SM SCT055 SCT070 31/23 A2990 RMK AO2 PK WND 31028/0055 LTG DSNT N AND NW PRESRR SLP130 T03060228 PNO $
KGAI - Gaithersburg, Maryland, USA
Distance from station: NE 26mi, 41km
Updated: Sat, 20-Jul-2019 8:56pm EDT
Clear
Clear
 Wind from calm
Wind: Calm
Temperature: 84°F , 29°C
Heat Index: 92°F , 33°C
Dew Point: 75°F , 24°C
Humidity: 74%
Barometer: 29.90 inHg , 1012.5 hPa
Clouds: Clear
Visibility: 10 miles , 16 km
2019/07/21 00:56 KGAI 210056Z AUTO 00000KT 10SM CLR 29/24 A2990 RMK AO2 LTG DSNT W SLP131 T02890239 PNO $
 
KDAA - Fort Belvoir/Dav, Virginia, USA
Distance from station: SE 27mi, 44km
Updated: Sat, 20-Jul-2019 8:56pm EDT
Clear
Clear
 Wind from calm
Wind: Calm
Temperature: 84°F , 29°C
Heat Index: 94°F , 34°C
Dew Point: 77°F , 25°C
Humidity: 79%
Barometer: 29.86 inHg , 1011.2 hPa
Clouds: Clear
Visibility: 10 miles , 16 km
2019/07/21 00:56 KDAA 210056Z AUTO 00000KT 10SM CLR 29/25 A2986 RMK AO2 SLP114 T02850251 $
KHWY - Warrenton, Virginia, USA
Distance from station: SSW 27mi, 44km
Updated: Sat, 20-Jul-2019 8:35pm EDT
Clear
Clear
 Wind from calm
Wind: Calm
Temperature: 90°F , 32°C
Heat Index: 94°F , 34°C
Dew Point: 68°F , 20°C
Humidity: 49%
Barometer: 29.87 inHg , 1011.5 hPa
Clouds: Clear
Visibility: 10 miles , 16 km
2019/07/21 00:35 KHWY 210035Z AUTO 00000KT 10SM CLR 32/20 A2987 RMK AO2 T03210201
 
KDCA - Washington/Natl, Washington D.c., USA
Distance from station: ESE 30mi, 48km
Updated: Sat, 20-Jul-2019 8:52pm EDT
Partly cloudy
Partly cloudy
 Wind from WSW
Wind: WSW 6 mph , 9 km/h
Temperature: 93°F , 34°C
Heat Index: 100°F , 38°C
Dew Point: 72°F , 22°C
Humidity: 49%
Barometer: 29.86 inHg , 1011.2 hPa
Clouds: Partly cloudy
Visibility: 10 miles , 16 km
Cloud details: Partly cloudy 22000 ft
2019/07/21 00:52 KDCA 210052Z 24005KT 10SM SCT220 34/22 A2986 RMK AO2 SLP109 T03390217
KFDK - Frederick, Maryland, USA
Distance from station: NNE 33mi, 53km
Updated: Sat, 20-Jul-2019 8:47pm EDT
Partly cloudy
Partly cloudy
 Wind from calm
Wind: Calm
Temperature: 88°F , 31°C
Heat Index: 103°F , 39°C
Dew Point: 79°F , 26°C
Humidity: 75%
Barometer: 29.89 inHg , 1012.2 hPa
Clouds: Partly cloudy
Visibility: 9 miles , 14 km
Cloud details: Partly cloudy 15000 ft
2019/07/21 00:47 KFDK 210047Z 00000KT 9SM SCT150 31/26 A2989
 
KOKV - Winchester Rgnl, Virginia, USA
Distance from station: WNW 33mi, 54km
Updated: Sat, 20-Jul-2019 8:55pm EDT
Clear
Clear
 Wind from calm
Wind: Calm
Temperature: 75°F , 24°C
Dew Point: 72°F , 22°C
Humidity: 89%
Barometer: 29.94 inHg , 1013.9 hPa
Clouds: Clear
Visibility: 10 miles , 16 km
2019/07/21 00:55 KOKV 210055Z AUTO 00000KT 10SM CLR 24/22 A2994 RMK AO2
KCJR - Culpeper, Virginia, USA
Distance from station: SSW 34mi, 54km
Updated: Sat, 20-Jul-2019 8:35pm EDT
Clear
Clear
 Wind from calm
Wind: Calm
Temperature: 86°F , 30°C
Heat Index: 93°F , 34°C
Dew Point: 73°F , 23°C
Humidity: 66%
Barometer: 29.88 inHg , 1011.9 hPa
Clouds: Clear
Visibility: 10 miles , 16 km
2019/07/21 00:35 KCJR 210035Z AUTO 00000KT 10SM CLR 30/23 A2988 RMK AO2 LTG DSNT N T03000232
 
KCGS - College Park, Maryland, USA
Distance from station: E 35mi, 56km
Updated: Sat, 20-Jul-2019 8:43pm EDT
Clear
Clear
 Wind from calm
Wind: Calm
Temperature: 91°F , 33°C
Heat Index: 95°F , 35°C
Dew Point: 68°F , 20°C
Humidity: 46%
Barometer: 29.85 inHg , 1010.8 hPa
Clouds: Clear
Visibility: 10 miles , 16 km
2019/07/21 00:43 KCGS 210043Z AUTO 00000KT 10SM CLR 33/20 A2985 RMK AO1 T03310197
KNYG - Quantico Mcaf, Virginia, USA
Distance from station: SSE 35mi, 57km
Updated: Sat, 20-Jul-2019 8:56pm EDT
Clear
Clear
 Wind from WNW
Wind: WNW 5 mph , 7 km/h
Temperature: 90°F , 32°C
Heat Index: 109°F , 43°C
Dew Point: 81°F , 27°C
Humidity: 75%
Barometer: 29.86 inHg , 1011.2 hPa
Clouds: Clear
Visibility: 10 miles , 16 km
2019/07/21 00:56 KNYG 210056Z AUTO 30004KT 10SM CLR 32/27 A2986 RMK AO2 SLP113 T03170267 $
 
KFRR - Fort Royal, Virginia, USA
Distance from station: W 37mi, 59km
Updated: Sat, 20-Jul-2019 8:55pm EDT
Clear
Clear
 Wind from calm
Wind: Calm
Temperature: 81°F , 27°C
Heat Index: 85°F , 29°C
Dew Point: 72°F , 22°C
Humidity: 74%
Barometer: 29.91 inHg , 1012.9 hPa
Clouds: Clear
Visibility: 10 miles , 16 km
2019/07/21 00:55 KFRR 210055Z AUTO 00000KT 10SM CLR 27/22 A2991 RMK AO1
KMRB - Martinsburg, West Virginia, USA
Distance from station: NW 38mi, 61km
Updated: Sat, 20-Jul-2019 8:53pm EDT
Clear
Clear
 Wind from W
Wind: W 7 mph , 11 km/h
Temperature: 91°F , 33°C
Heat Index: 96°F , 36°C
Dew Point: 70°F , 21°C
Humidity: 49%
Barometer: 29.88 inHg , 1011.9 hPa
Clouds: Clear
Visibility: 10 miles , 16 km
2019/07/21 00:53 KMRB 210053Z AUTO 27006KT 10SM CLR 33/21 A2988 RMK AO2 LTG DSNT SE SLP112 T03280211
 
KADW - Andrews Afb, Maryland, USA
Distance from station: ESE 39mi, 63km
Updated: Sat, 20-Jul-2019 8:56pm EDT
Few Clouds
Few Clouds
 Wind from SW
Wind: SW 5 mph , 7 km/h
Temperature: 86°F , 30°C
Heat Index: 95°F , 35°C
Dew Point: 75°F , 24°C
Humidity: 70%
Barometer: 29.86 inHg , 1011.2 hPa
Clouds: Few Clouds
Visibility: 10 miles , 16 km
Cloud details: Few Clouds 19000 ft
2019/07/21 00:56 KADW 210056Z AUTO 22004KT 10SM FEW190 30/24 A2986 RMK AO2 SLP115 T02980239 $
KRMN - Stafford Regnl, Virginia, USA
Distance from station: S 39mi, 63km
Updated: Sat, 20-Jul-2019 8:55pm EDT
Clear
Clear
 Wind from calm
Wind: Calm
Temperature: 84°F , 29°C
Heat Index: 103°F , 39°C
Dew Point: 84°F , 29°C
Humidity: 100%
Barometer: 29.91 inHg , 1012.9 hPa
Clouds: Clear
Visibility: 10 miles , 16 km
2019/07/21 00:55 KRMN 210055Z AUTO 00000KT 10SM CLR 29/29 A2991 RMK AO2 T02900287
 
KFME - Fort Meade, Maryland, USA
Distance from station: ENE 44mi, 70km
Updated: Sat, 20-Jul-2019 8:42pm EDT
Clear
Clear
 Wind from calm
Wind: Calm
Temperature: 81°F , 27°C
Heat Index: 88°F , 31°C
Dew Point: 77°F , 25°C
Humidity: 89%
Barometer: 29.88 inHg , 1011.9 hPa
Clouds: Clear
Visibility: 10 miles , 16 km
2019/07/21 00:42 KFME 210042Z AUTO 00000KT 10SM CLR 27/25 A2988 RMK AO1
KRSP - Nsf Thurmont, Maryland, USA
Distance from station: N 48mi, 77km
Updated: Sat, 18-May-2019 1:54pm EDT
NOT Current

 
2019/05/18 17:54 KRSP 181754Z AUTO VRB04KTLS21/16 A3004 RMK AO2 SLP168 T02110161 10228 20172 $
 
KEZF - Fredericksb/Shan, Virginia, USA
Distance from station: S 48mi, 78km
Updated: Sat, 20-Jul-2019 8:35pm EDT
Clear
Clear
 Wind from SW
Wind: SW 5 mph , 7 km/h
Temperature: 91°F , 33°C
Heat Index: 104°F , 40°C
Dew Point: 77°F , 25°C
Humidity: 63%
Barometer: 29.86 inHg , 1011.2 hPa
Clouds: Clear
Visibility: 10 miles , 16 km
2019/07/21 00:35 KEZF 210035Z AUTO 22004KT 10SM CLR 33/25 A2986 RMK AO2 T03270254
KBWI - Balto/Wash Intl, Maryland, USA
Distance from station: ENE 49mi, 80km
Updated: Sat, 20-Jul-2019 8:54pm EDT
Partly cloudy
Partly cloudy
 Wind from WNW
Wind: WNW 5 mph , 7 km/h
Temperature: 90°F , 32°C
Heat Index: 101°F , 38°C
Dew Point: 75°F , 24°C
Humidity: 63%
Barometer: 29.85 inHg , 1010.8 hPa
Clouds: Partly cloudy
Visibility: 10 miles , 16 km
Cloud details: Few Clouds 6000 ft
Few Clouds 16000 ft
Partly cloudy 25000 ft
2019/07/21 00:54 KBWI 210054Z 29004KT 10SM FEW060 FEW160 SCT250 32/24 A2985 RMK AO2 SLP106 CB DSNT W MOV E T03220239